Time;durP1;ratioP1;P1;durP2;ratioP2;P2;SDS_P1;SDS_P2;PMS_P1;PMS_P2;Temp;Humidity;BMP_temperature;BMP_pressure;BME280_temperature;BME280_humidity;BME280_pressure;Samples;Min_cycle;Max_cycle;Signal;HPM_P1;HPM_P2
2022/09/13 00:02:42;;;;;;;4.73;4.43;;;17.70;37.50;;;;;;10548329;28;20218;-75
2022/09/13 00:07:45;;;;;;;4.83;4.40;;;17.60;37.90;;;;;;10549002;28;20918;-77
2022/09/13 00:12:49;;;;;;;5.23;4.83;;;17.40;37.60;;;;;;10545274;28;20276;-78
2022/09/13 00:17:53;;;;;;;4.80;4.40;;;17.30;38.00;;;;;;10547967;28;20230;-75
2022/09/13 00:22:56;;;;;;;4.20;3.90;;;17.10;38.50;;;;;;10549024;28;20222;-75
2022/09/13 00:27:59;;;;;;;5.00;4.60;;;17.00;38.40;;;;;;10547370;28;20961;-77
2022/09/13 00:33:04;;;;;;;4.90;4.40;;;17.00;38.50;;;;;;10548113;28;20631;-78
2022/09/13 00:38:07;;;;;;;4.00;3.70;;;16.90;38.80;;;;;;10542666;28;20349;-75
2022/09/13 00:43:17;;;;;;;4.17;3.87;;;16.90;38.40;;;;;;10547428;28;20234;-78
2022/09/13 00:48:24;;;;;;;4.87;4.47;;;16.80;39.40;;;;;;10546850;28;20279;-77
2022/09/13 00:53:33;;;;;;;5.37;4.87;;;16.80;39.20;;;;;;10544776;28;20276;-77
2022/09/13 00:58:40;;;;;;;4.70;4.30;;;16.80;39.50;;;;;;10552942;28;20226;-77
2022/09/13 01:03:47;;;;;;;4.17;3.60;;;16.80;39.30;;;;;;10555515;27;20230;-77
2022/09/13 01:08:53;;;;;;;4.00;3.70;;;16.70;39.40;;;;;;10554037;27;20381;-77
2022/09/13 01:13:57;;;;;;;4.30;4.00;;;16.70;39.50;;;;;;10552717;27;20231;-78
2022/09/13 01:19:02;;;;;;;3.90;3.60;;;16.70;39.30;;;;;;10554953;28;20299;-77
2022/09/13 01:24:48;;;;;;;3.40;3.20;;;16.70;39.40;;;;;;10556335;27;20270;-77
2022/09/13 01:30:20;;;;;;;3.50;3.27;;;16.70;39.50;;;;;;10503855;28;20716;-77
2022/09/13 01:35:30;;;;;;;3.80;3.50;;;16.70;39.50;;;;;;10551607;28;20558;-77
2022/09/13 01:40:49;;;;;;;4.17;3.87;;;16.70;39.30;;;;;;10553244;28;20359;-78
2022/09/13 01:46:03;;;;;;;3.83;3.53;;;16.70;39.60;;;;;;10548639;28;21171;-77
2022/09/13 01:51:12;;;;;;;4.03;3.73;;;16.70;39.40;;;;;;10549846;28;21237;-77
2022/09/13 01:56:21;;;;;;;3.70;3.50;;;16.70;39.10;;;;;;10553870;28;20231;-77
2022/09/13 02:01:31;;;;;;;4.10;3.80;;;16.70;39.10;;;;;;10529035;28;20230;-78
2022/09/13 02:06:40;;;;;;;5.57;4.77;;;16.70;39.30;;;;;;10555035;27;20254;-77
2022/09/13 02:11:47;;;;;;;4.70;4.30;;;16.70;39.00;;;;;;10549708;28;20428;-77
2022/09/13 02:16:56;;;;;;;4.17;3.87;;;16.70;39.20;;;;;;10549715;28;20234;-77
2022/09/13 02:22:01;;;;;;;3.77;3.50;;;16.60;39.40;;;;;;10548167;27;20230;-77
2022/09/13 02:27:08;;;;;;;4.70;4.40;;;16.60;39.10;;;;;;10553647;28;20230;-77
2022/09/13 02:32:17;;;;;;;4.83;4.33;;;16.60;39.10;;;;;;10543203;28;20573;-77
2022/09/13 02:37:21;;;;;;;4.80;4.40;;;16.60;38.90;;;;;;10544836;28;20744;-77
2022/09/13 02:42:30;;;;;;;3.80;3.50;;;16.50;38.80;;;;;;10530157;28;20225;-77
2022/09/13 02:47:47;;;;;;;3.73;3.43;;;16.40;39.10;;;;;;10548424;28;20231;-77
2022/09/13 02:53:01;;;;;;;4.00;3.70;;;16.40;39.50;;;;;;10551288;28;20222;-77
2022/09/13 02:58:10;;;;;;;3.47;3.17;;;16.40;39.40;;;;;;10550804;28;20682;-77
2022/09/13 03:03:16;;;;;;;3.13;2.93;;;16.30;39.10;;;;;;10543760;28;20284;-77
2022/09/13 03:08:20;;;;;;;3.33;3.13;;;16.30;38.90;;;;;;10539554;28;20253;-77
2022/09/13 03:13:53;;;;;;;3.10;2.90;;;16.30;38.80;;;;;;10547961;28;20227;-77
2022/09/13 03:19:11;;;;;;;3.07;2.87;;;16.20;39.20;;;;;;10549723;28;20234;-77
2022/09/13 03:24:21;;;;;;;2.50;2.30;;;16.20;39.30;;;;;;10532921;28;20219;-77
2022/09/13 03:29:31;;;;;;;3.13;2.93;;;16.20;39.10;;;;;;10548200;28;20226;-77
2022/09/13 03:34:43;;;;;;;2.73;2.60;;;16.10;39.00;;;;;;10547953;28;20962;-77
2022/09/13 03:39:52;;;;;;;3.80;3.50;;;16.00;39.20;;;;;;10552992;28;20241;-77
2022/09/13 03:44:58;;;;;;;3.27;3.07;;;16.00;39.20;;;;;;10547160;28;20241;-77
2022/09/13 03:50:03;;;;;;;4.20;3.90;;;15.90;39.60;;;;;;10552533;28;20272;-77
2022/09/13 03:55:07;;;;;;;4.40;4.00;;;15.80;39.10;;;;;;10547910;28;20252;-77
2022/09/13 04:00:13;;;;;;;4.27;3.97;;;15.70;39.00;;;;;;10550743;28;20230;-77
2022/09/13 04:05:18;;;;;;;3.87;3.40;;;15.60;39.60;;;;;;10548804;28;20218;-77
2022/09/13 04:10:23;;;;;;;3.17;2.97;;;15.60;39.40;;;;;;10551011;27;20913;-77
2022/09/13 04:15:26;;;;;;;3.03;2.83;;;15.60;39.30;;;;;;10549647;28;20715;-77
2022/09/13 04:20:30;;;;;;;3.83;3.53;;;15.60;39.20;;;;;;10550135;28;20247;-77
2022/09/13 04:25:33;;;;;;;3.90;3.60;;;15.60;39.40;;;;;;10537164;28;20313;-77
2022/09/13 04:30:37;;;;;;;3.60;3.30;;;15.50;38.90;;;;;;10551897;28;20695;-77
2022/09/13 04:35:46;;;;;;;3.43;3.13;;;15.40;38.80;;;;;;10558348;28;20227;-77
2022/09/13 04:40:53;;;;;;;4.00;3.70;;;15.30;39.40;;;;;;10558867;27;20239;-77
2022/09/13 04:46:00;;;;;;;4.20;3.80;;;15.30;39.80;;;;;;10552120;28;20227;-77
2022/09/13 04:51:05;;;;;;;3.90;3.60;;;15.20;39.90;;;;;;10555731;28;20218;-77
2022/09/13 04:56:09;;;;;;;4.07;3.77;;;15.10;39.80;;;;;;10526707;28;20257;-77
2022/09/13 05:01:12;;;;;;;4.60;4.20;;;15.00;39.70;;;;;;10551131;28;20254;-77
2022/09/13 05:06:18;;;;;;;5.00;4.60;;;15.10;40.00;;;;;;10558108;27;20246;-77
2022/09/13 05:11:22;;;;;;;5.43;4.73;;;15.00;40.40;;;;;;10552169;27;20226;-77
2022/09/13 05:16:27;;;;;;;5.60;5.00;;;14.90;40.00;;;;;;10553278;27;20579;-77
2022/09/13 05:21:32;;;;;;;5.33;4.60;;;14.80;40.60;;;;;;10566817;27;20246;-79
2022/09/13 05:26:35;;;;;;;5.57;5.07;;;14.70;41.00;;;;;;10572204;28;20230;-79
2022/09/13 05:31:40;;;;;;;5.60;5.00;;;14.70;40.90;;;;;;10587428;28;20249;-79
2022/09/13 05:36:45;;;;;;;5.30;4.80;;;14.70;41.50;;;;;;10584106;28;20404;-79
2022/09/13 05:41:53;;;;;;;4.10;3.77;;;14.70;41.80;;;;;;10582175;27;20232;-79
2022/09/13 05:46:57;;;;;;;4.67;4.27;;;14.70;41.50;;;;;;10585421;27;20721;-79
2022/09/13 05:52:01;;;;;;;5.87;5.27;;;14.80;41.90;;;;;;10581751;27;20330;-79
2022/09/13 05:57:05;;;;;;;5.63;5.13;;;14.80;42.50;;;;;;10584431;27;20311;-78
2022/09/13 06:02:09;;;;;;;5.50;5.00;;;14.90;42.00;;;;;;10578239;28;21057;-79
2022/09/13 06:07:14;;;;;;;6.00;5.47;;;15.00;42.80;;;;;;10583389;28;20223;-78
2022/09/13 06:12:17;;;;;;;9.87;5.67;;;15.00;43.10;;;;;;10571493;28;20699;-79
2022/09/13 06:17:20;;;;;;;8.57;6.27;;;15.10;42.90;;;;;;10584465;27;20246;-79
2022/09/13 06:22:31;;;;;;;5.97;5.47;;;15.20;43.10;;;;;;10582617;28;20233;-79
2022/09/13 06:27:35;;;;;;;6.57;5.97;;;15.30;44.40;;;;;;10583682;27;20819;-79
2022/09/13 06:32:38;;;;;;;6.03;5.43;;;15.40;43.80;;;;;;10587146;28;20219;-79
2022/09/13 06:37:42;;;;;;;6.93;6.30;;;15.60;44.30;;;;;;10578281;28;20279;-79
2022/09/13 06:42:45;;;;;;;6.70;5.37;;;15.70;45.00;;;;;;10582953;28;20231;-79
2022/09/13 06:47:48;;;;;;;5.20;4.80;;;15.80;44.90;;;;;;10584451;28;20234;-79
2022/09/13 06:52:53;;;;;;;5.47;4.97;;;16.00;45.20;;;;;;10582452;27;20846;-79
2022/09/13 06:57:56;;;;;;;4.97;4.50;;;16.10;45.30;;;;;;10577586;28;20224;-79
2022/09/13 07:02:59;;;;;;;6.10;5.60;;;16.30;45.40;;;;;;10568849;28;20251;-79
2022/09/13 07:08:04;;;;;;;5.77;5.33;;;16.50;45.60;;;;;;10582392;28;20222;-79
2022/09/13 07:13:07;;;;;;;5.63;5.23;;;16.70;46.00;;;;;;10582162;28;20218;-79
2022/09/13 07:18:10;;;;;;;5.17;4.77;;;16.90;46.00;;;;;;10584163;28;20237;-79
2022/09/13 07:23:14;;;;;;;4.97;4.57;;;17.10;46.20;;;;;;10581439;28;20854;-79
2022/09/13 07:28:17;;;;;;;6.27;4.10;;;17.30;46.30;;;;;;10579574;28;20256;-79
2022/09/13 07:33:24;;;;;;;4.63;4.07;;;17.50;46.10;;;;;;10569192;28;20230;-79
2022/09/13 07:38:28;;;;;;;5.13;4.43;;;17.80;46.20;;;;;;10579870;28;20290;-79
2022/09/13 07:43:32;;;;;;;4.27;3.97;;;18.00;46.90;;;;;;10583346;28;20231;-79
2022/09/13 07:48:38;;;;;;;4.63;3.90;;;18.30;45.90;;;;;;10586387;28;20237;-79
2022/09/13 07:53:44;;;;;;;4.33;3.90;;;18.50;45.90;;;;;;10582436;28;20234;-80
2022/09/13 07:58:48;;;;;;;4.60;4.20;;;18.80;46.30;;;;;;10581225;28;20252;-79
2022/09/13 08:03:53;;;;;;;4.30;3.90;;;19.00;45.50;;;;;;10566857;28;20226;-79
2022/09/13 08:08:58;;;;;;;4.00;3.70;;;19.10;45.30;;;;;;10596257;28;20227;-79
2022/09/13 08:14:02;;;;;;;4.63;3.87;;;19.30;45.20;;;;;;10599739;28;20230;-79
2022/09/13 08:19:06;;;;;;;3.63;3.33;;;19.50;45.00;;;;;;10583654;28;20227;-79
2022/09/13 08:24:14;;;;;;;8.43;4.07;;;19.60;44.90;;;;;;10581546;28;20285;-78
2022/09/13 08:29:18;;;;;;;4.30;3.90;;;19.80;45.60;;;;;;10600245;28;20234;-79
2022/09/13 08:34:21;;;;;;;4.10;3.80;;;20.00;44.70;;;;;;10576585;28;20231;-79
2022/09/13 08:39:25;;;;;;;4.20;3.80;;;20.20;44.60;;;;;;10594893;28;21084;-79
2022/09/13 08:44:36;;;;;;;4.03;3.73;;;20.50;44.80;;;;;;10593618;28;20222;-79
2022/09/13 08:49:44;;;;;;;3.53;3.23;;;20.80;45.30;;;;;;10566409;28;20224;-79
2022/09/13 08:54:50;;;;;;;3.70;3.33;;;21.10;44.30;;;;;;10572447;28;20734;-79
2022/09/13 09:00:06;;;;;;;3.27;3.07;;;21.40;44.30;;;;;;10570336;28;20273;-79
2022/09/13 09:05:16;;;;;;;2.93;2.73;;;21.70;44.20;;;;;;10563758;28;20226;-80
2022/09/13 09:10:24;;;;;;;3.13;2.93;;;22.00;43.80;;;;;;10567089;28;20226;-78
2022/09/13 09:15:34;;;;;;;2.80;2.60;;;22.30;43.40;;;;;;10571612;28;20272;-79
2022/09/13 09:20:41;;;;;;;2.93;2.67;;;22.60;43.40;;;;;;10573310;28;20310;-79
2022/09/13 09:25:46;;;;;;;3.20;2.90;;;22.90;43.00;;;;;;10558792;28;20234;-76
2022/09/13 09:30:57;;;;;;;2.33;2.13;;;23.10;42.60;;;;;;10560608;27;20215;-79
2022/09/13 09:36:06;;;;;;;2.87;2.67;;;23.40;42.20;;;;;;10552814;27;20314;-76
2022/09/13 09:41:26;;;;;;;2.70;2.50;;;23.70;41.50;;;;;;10568848;28;20249;-80
2022/09/13 09:46:32;;;;;;;2.60;2.40;;;23.90;41.30;;;;;;10571115;28;20249;-78
2022/09/13 09:51:35;;;;;;;2.93;2.50;;;24.10;41.20;;;;;;10563496;28;20218;-79
2022/09/13 09:56:53;;;;;;;2.80;2.60;;;24.40;41.50;;;;;;10557229;27;20223;-78
2022/09/13 10:01:56;;;;;;;2.37;2.13;;;24.60;40.50;;;;;;10560411;28;20227;-78
2022/09/13 10:07:19;;;;;;;2.60;2.40;;;24.80;40.70;;;;;;10560402;28;20230;-79
2022/09/13 10:12:28;;;;;;;2.17;2.07;;;25.00;40.50;;;;;;10561340;28;20254;-78
2022/09/13 10:17:32;;;;;;;2.37;2.17;;;25.20;39.80;;;;;;10568547;28;20275;-78
2022/09/13 10:22:35;;;;;;;2.20;2.10;;;25.40;40.60;;;;;;10563671;28;20219;-78
2022/09/13 10:27:42;;;;;;;2.40;2.00;;;25.50;40.10;;;;;;10568650;28;20237;-78
2022/09/13 10:32:56;;;;;;;2.10;2.00;;;25.70;38.30;;;;;;10569814;27;20299;-78
2022/09/13 10:37:59;;;;;;;1.93;1.83;;;25.80;38.10;;;;;;10568994;27;20977;-76
2022/09/13 10:43:07;;;;;;;2.23;2.10;;;25.90;38.30;;;;;;10567347;28;20207;-76
2022/09/13 10:54:32;;;;;;;1.93;1.83;;;26.00;37.30;;;;;;10560266;28;20298;-76
2022/09/13 10:59:36;;;;;;;2.00;1.90;;;26.10;38.20;;;;;;10572133;28;20223;-77
2022/09/13 11:05:06;;;;;;;1.60;1.50;;;26.10;36.90;;;;;;10566916;28;20234;-76
2022/09/13 11:10:18;;;;;;;1.60;1.50;;;26.10;36.50;;;;;;10569203;28;20226;-76
2022/09/13 11:15:35;;;;;;;1.80;1.70;;;26.10;35.40;;;;;;10563176;28;20623;-77
2022/09/13 11:20:47;;;;;;;1.93;1.80;;;26.10;34.80;;;;;;10559884;28;20226;-76
2022/09/13 11:26:06;;;;;;;2.80;1.60;;;26.00;35.50;;;;;;10554181;28;20227;-76
2022/09/13 11:31:25;;;;;;;1.80;1.70;;;25.90;36.10;;;;;;10552723;28;20223;-77
2022/09/13 11:36:46;;;;;;;2.30;1.67;;;26.00;35.50;;;;;;10564425;28;20223;-76
2022/09/13 11:41:59;;;;;;;1.50;1.40;;;26.00;35.40;;;;;;10561784;28;20218;-77
2022/09/13 11:47:11;;;;;;;1.80;1.70;;;26.00;35.10;;;;;;10569998;28;20218;-77
2022/09/13 11:52:25;;;;;;;2.47;1.53;;;26.10;35.00;;;;;;10563594;28;20223;-78
2022/09/13 11:57:34;;;;;;;1.77;1.67;;;26.10;34.40;;;;;;10565156;28;20235;-78
2022/09/13 12:02:43;;;;;;;1.60;1.50;;;26.10;35.40;;;;;;10567058;28;20218;-81
2022/09/13 12:07:51;;;;;;;2.20;1.57;;;26.10;35.20;;;;;;10551371;28;20570;-83
2022/09/13 12:12:55;;;;;;;2.33;1.90;;;26.10;34.50;;;;;;10571955;28;20231;-78
2022/09/13 12:18:04;;;;;;;1.90;1.80;;;26.20;36.00;;;;;;10573733;28;20243;-81
2022/09/13 12:23:14;;;;;;;2.30;1.83;;;26.20;35.60;;;;;;10555702;28;20241;-80
2022/09/13 12:28:23;;;;;;;2.03;1.93;;;26.20;35.20;;;;;;10559080;28;20230;-79
2022/09/13 12:33:28;;;;;;;2.00;1.80;;;26.30;35.30;;;;;;10576083;28;20227;-79
2022/09/13 12:38:59;;;;;;;1.87;1.67;;;26.30;35.30;;;;;;10581928;28;20249;-80
2022/09/13 12:44:41;;;;;;;1.80;1.70;;;26.40;34.50;;;;;;10532230;28;20274;-78
2022/09/13 12:50:01;;;;;;;1.70;1.60;;;26.40;34.50;;;;;;10557494;28;20227;-77
2022/09/13 12:55:43;;;;;;;1.50;1.40;;;26.40;32.80;;;;;;10558842;28;20689;-75
2022/09/13 13:01:09;;;;;;;1.50;1.40;;;26.50;33.00;;;;;;10533750;28;20314;-75
2022/09/13 13:06:32;;;;;;;1.67;1.47;;;26.50;33.20;;;;;;10560688;28;20219;-78
2022/09/13 13:11:46;;;;;;;1.77;1.60;;;26.60;33.20;;;;;;10573742;28;20232;-79
2022/09/13 13:16:49;;;;;;;1.50;1.40;;;26.80;31.70;;;;;;10563402;28;20220;-78
2022/09/13 13:21:53;;;;;;;1.90;1.80;;;26.90;33.30;;;;;;10528658;28;20227;-75
2022/09/13 13:26:58;;;;;;;1.80;1.60;;;27.00;32.40;;;;;;10550381;28;20226;-77
2022/09/13 13:32:12;;;;;;;1.80;1.70;;;27.10;32.90;;;;;;10527612;28;20273;-76
2022/09/13 13:37:37;;;;;;;1.60;1.50;;;27.10;32.00;;;;;;10549013;28;20592;-77
2022/09/13 13:42:44;;;;;;;2.50;1.67;;;27.20;32.20;;;;;;10527030;28;20223;-75
2022/09/13 13:48:08;;;;;;;2.43;1.67;;;27.30;32.50;;;;;;10559828;28;20234;-77
2022/09/13 13:53:22;;;;;;;2.77;1.73;;;27.40;31.20;;;;;;10558209;28;20215;-76
2022/09/13 13:58:31;;;;;;;1.83;1.73;;;27.40;32.00;;;;;;10561724;28;20227;-77
2022/09/13 14:04:06;;;;;;;1.70;1.60;;;27.50;31.60;;;;;;10558972;28;20653;-77
2022/09/13 14:09:27;;;;;;;1.90;1.80;;;27.60;32.30;;;;;;10542034;28;20291;-77
2022/09/13 14:14:53;;;;;;;1.60;1.57;;;27.60;31.90;;;;;;10551298;28;20230;-76
2022/09/13 14:20:00;;;;;;;1.90;1.80;;;27.60;33.10;;;;;;10555264;28;20291;-76
2022/09/13 14:25:23;;;;;;;1.80;1.70;;;27.70;33.70;;;;;;10560382;28;20280;-77
2022/09/13 14:30:31;;;;;;;1.90;1.80;;;27.70;33.90;;;;;;10560267;28;20299;-75
2022/09/13 14:35:36;;;;;;;2.63;1.70;;;27.70;33.10;;;;;;10563760;28;21443;-77
2022/09/13 14:40:41;;;;;;;2.70;1.77;;;27.60;33.50;;;;;;10558894;28;20223;-76
2022/09/13 14:45:48;;;;;;;2.00;1.90;;;27.60;33.40;;;;;;10556059;28;20222;-76
2022/09/13 14:50:57;;;;;;;1.97;1.80;;;27.60;34.40;;;;;;10561193;28;20223;-77
2022/09/13 14:56:06;;;;;;;2.10;2.00;;;27.60;34.50;;;;;;10556217;28;20630;-77
2022/09/13 15:01:12;;;;;;;2.00;1.90;;;27.50;35.30;;;;;;10558713;28;20291;-76
2022/09/13 15:06:26;;;;;;;2.00;1.90;;;27.40;34.80;;;;;;10557190;28;20231;-76
2022/09/13 15:11:35;;;;;;;2.40;2.20;;;27.40;35.40;;;;;;10554559;28;20305;-76
2022/09/13 15:16:48;;;;;;;2.17;2.00;;;27.40;35.80;;;;;;10561261;28;20235;-78
2022/09/13 15:21:51;;;;;;;2.40;2.20;;;27.30;36.10;;;;;;10557331;28;20219;-76
2022/09/13 15:27:04;;;;;;;2.40;2.20;;;27.30;35.50;;;;;;10551407;28;20231;-77
2022/09/13 15:32:21;;;;;;;2.40;2.20;;;27.30;35.70;;;;;;10556501;28;20226;-76
2022/09/13 15:37:34;;;;;;;2.63;2.40;;;27.20;35.20;;;;;;10554701;28;20303;-76
2022/09/13 15:42:38;;;;;;;2.40;2.30;;;27.20;35.40;;;;;;10557405;28;20604;-76
2022/09/13 15:47:44;;;;;;;2.33;2.20;;;27.20;35.30;;;;;;10556953;28;20238;-76
2022/09/13 15:52:47;;;;;;;2.50;2.30;;;27.10;35.20;;;;;;10553343;28;20226;-76
2022/09/13 15:57:52;;;;;;;2.43;2.23;;;27.10;35.70;;;;;;10556079;28;21007;-75
2022/09/13 16:02:55;;;;;;;2.80;2.37;;;27.10;35.80;;;;;;10553574;28;20634;-76
2022/09/13 16:07:59;;;;;;;2.80;2.70;;;27.00;35.70;;;;;;10546551;28;20232;-77
2022/09/13 16:13:03;;;;;;;3.60;2.77;;;26.90;35.50;;;;;;10554153;28;21184;-76
2022/09/13 16:18:06;;;;;;;3.63;2.97;;;26.80;35.70;;;;;;10556152;28;20218;-76
2022/09/13 16:23:10;;;;;;;2.90;2.70;;;26.70;35.50;;;;;;10553921;28;20260;-76
2022/09/13 16:28:17;;;;;;;3.10;2.90;;;26.60;35.90;;;;;;10563749;28;20233;-78
2022/09/13 16:33:20;;;;;;;3.27;2.97;;;26.50;37.00;;;;;;10567646;28;20231;-78
2022/09/13 16:38:23;;;;;;;2.90;2.67;;;26.50;37.00;;;;;;10572491;27;20219;-79
2022/09/13 16:43:28;;;;;;;4.87;2.40;;;26.40;36.90;;;;;;10571447;27;20624;-75
2022/09/13 16:48:31;;;;;;;2.90;2.60;;;26.30;37.20;;;;;;10554607;28;20232;-75
2022/09/13 16:53:35;;;;;;;3.20;2.97;;;26.30;37.40;;;;;;10561021;28;20223;-75
2022/09/13 16:58:42;;;;;;;4.77;3.20;;;26.20;37.60;;;;;;10562225;28;21144;-77
2022/09/13 17:03:45;;;;;;;3.53;3.17;;;26.20;38.20;;;;;;10563153;28;20238;-77
2022/09/13 17:08:50;;;;;;;3.30;3.00;;;26.10;37.50;;;;;;10562955;28;20230;-77
2022/09/13 17:13:55;;;;;;;4.13;3.80;;;26.10;37.90;;;;;;10560931;28;20230;-76
2022/09/13 17:19:00;;;;;;;4.97;3.57;;;26.00;38.10;;;;;;10562302;28;20222;-76
2022/09/13 17:24:04;;;;;;;3.73;3.43;;;26.00;38.10;;;;;;10560022;28;20285;-76
2022/09/13 17:29:14;;;;;;;3.47;3.17;;;25.90;37.90;;;;;;10544996;28;20235;-75
2022/09/13 17:34:18;;;;;;;4.67;3.47;;;25.90;38.40;;;;;;10560460;28;20239;-75
2022/09/13 17:39:21;;;;;;;3.67;3.43;;;25.80;37.90;;;;;;10553404;27;20223;-75
2022/09/13 17:44:26;;;;;;;4.20;3.90;;;25.70;37.90;;;;;;10555019;28;20288;-75
2022/09/13 17:49:29;;;;;;;3.90;3.60;;;25.60;38.40;;;;;;10554054;28;20255;-76
2022/09/13 17:54:32;;;;;;;4.50;4.20;;;25.50;38.30;;;;;;10557598;28;20227;-75
2022/09/13 17:59:37;;;;;;;4.00;3.70;;;25.40;38.50;;;;;;10557446;27;20231;-76
2022/09/13 18:04:40;;;;;;;3.80;3.37;;;25.40;38.80;;;;;;10559445;28;20231;-75
2022/09/13 18:09:43;;;;;;;4.10;3.80;;;25.30;38.50;;;;;;10562306;28;20273;-75
2022/09/13 18:14:48;;;;;;;4.00;3.70;;;25.20;38.80;;;;;;10550916;28;20228;-77
2022/09/13 18:19:51;;;;;;;4.20;3.77;;;25.20;39.30;;;;;;10508710;28;20223;-76
2022/09/13 18:24:54;;;;;;;3.37;3.07;;;25.10;39.10;;;;;;10512850;28;20233;-76
2022/09/13 18:29:58;;;;;;;3.93;3.53;;;25.10;39.10;;;;;;10493852;28;20281;-76
2022/09/13 18:35:02;;;;;;;3.63;3.33;;;25.10;39.50;;;;;;10520687;28;20732;-77
2022/09/13 18:40:12;;;;;;;4.33;3.60;;;25.00;39.30;;;;;;10510533;28;20691;-75
2022/09/13 18:45:17;;;;;;;3.53;3.33;;;24.90;39.30;;;;;;10514706;28;20708;-76
2022/09/13 18:50:20;;;;;;;5.30;4.80;;;24.90;39.60;;;;;;10523244;28;20293;-77
2022/09/13 18:55:23;;;;;;;4.20;3.90;;;24.80;39.40;;;;;;10521813;28;20231;-77
2022/09/13 19:00:28;;;;;;;5.03;4.40;;;24.80;39.40;;;;;;10521459;28;20730;-77
2022/09/13 19:05:34;;;;;;;5.00;4.60;;;24.70;40.00;;;;;;10517821;28;20232;-78
2022/09/13 19:10:37;;;;;;;5.00;4.60;;;24.60;39.70;;;;;;10530058;28;20227;-79
2022/09/13 19:15:42;;;;;;;4.53;4.13;;;24.50;39.60;;;;;;10529073;28;20227;-79
2022/09/13 19:20:45;;;;;;;7.20;4.93;;;24.50;40.00;;;;;;10524925;28;20223;-82
2022/09/13 19:25:48;;;;;;;5.00;4.50;;;24.40;39.80;;;;;;10522035;28;20235;-79
2022/09/13 19:30:53;;;;;;;5.60;4.47;;;24.30;39.80;;;;;;10523258;28;20262;-79
2022/09/13 19:35:56;;;;;;;4.10;3.80;;;24.20;40.20;;;;;;10516549;28;20234;-77
2022/09/13 19:41:01;;;;;;;5.17;4.07;;;24.10;40.10;;;;;;10517237;28;20280;-77
2022/09/13 19:46:07;;;;;;;4.40;4.10;;;24.10;40.10;;;;;;10509049;28;20269;-77
2022/09/13 19:51:13;;;;;;;6.07;5.60;;;24.00;40.00;;;;;;10510912;28;20232;-77
2022/09/13 19:56:18;;;;;;;4.77;4.37;;;23.90;39.90;;;;;;10524235;28;20250;-79
2022/09/13 20:01:24;;;;;;;4.53;4.23;;;23.90;39.90;;;;;;10536873;28;20281;-79
2022/09/13 20:06:29;;;;;;;5.10;4.70;;;23.80;39.80;;;;;;10545592;28;20231;-79
2022/09/13 20:11:33;;;;;;;3.90;3.60;;;23.70;39.80;;;;;;10543723;28;20227;-79
2022/09/13 20:16:43;;;;;;;5.07;4.60;;;23.70;39.80;;;;;;10580170;28;20234;-80
2022/09/13 20:21:48;;;;;;;4.40;4.10;;;23.60;39.70;;;;;;10589372;28;20228;-80
2022/09/13 20:26:51;;;;;;;3.77;3.57;;;23.50;39.60;;;;;;10584568;28;20248;-79
2022/09/13 20:31:58;;;;;;;5.00;4.50;;;23.50;39.60;;;;;;10576940;28;20232;-81
2022/09/13 20:37:01;;;;;;;4.60;4.20;;;23.50;39.60;;;;;;10575100;28;20622;-81
2022/09/13 20:42:05;;;;;;;4.70;4.30;;;23.30;39.50;;;;;;10576138;28;20230;-81
2022/09/13 20:47:10;;;;;;;4.30;3.83;;;23.20;39.40;;;;;;10572457;28;20227;-81
2022/09/13 20:52:13;;;;;;;4.37;3.97;;;23.10;39.80;;;;;;10570973;28;20220;-81
2022/09/13 20:57:16;;;;;;;4.37;4.07;;;23.10;39.30;;;;;;10573948;28;20645;-81
2022/09/13 21:02:21;;;;;;;5.13;4.43;;;22.90;39.50;;;;;;10570112;28;20231;-81
2022/09/13 21:12:49;;;;;;;4.63;4.10;;;22.70;39.70;;;;;;10567128;28;20316;-81
2022/09/13 21:17:53;;;;;;;5.73;3.80;;;22.70;39.50;;;;;;10571697;28;20243;-80
2022/09/13 21:22:56;;;;;;;5.17;4.67;;;22.50;39.90;;;;;;10570242;28;20224;-80
2022/09/13 21:28:00;;;;;;;4.60;4.20;;;22.50;40.00;;;;;;10568029;28;20235;-81
2022/09/13 21:33:04;;;;;;;4.80;4.40;;;22.40;39.90;;;;;;10570059;28;20227;-81
2022/09/13 21:38:07;;;;;;;5.10;4.60;;;22.30;40.50;;;;;;10564983;28;20215;-81
2022/09/13 21:43:10;;;;;;;5.17;4.77;;;22.20;40.20;;;;;;10576740;28;20226;-81
2022/09/13 21:48:15;;;;;;;4.97;4.57;;;22.20;40.50;;;;;;10568268;28;20227;-81
2022/09/13 21:53:18;;;;;;;5.80;5.30;;;22.10;40.80;;;;;;10571756;28;20269;-81
2022/09/13 21:58:22;;;;;;;5.50;5.00;;;22.10;40.50;;;;;;10568670;28;20239;-81
2022/09/13 22:03:26;;;;;;;4.60;4.30;;;21.90;40.60;;;;;;10572771;28;20223;-81
2022/09/13 22:08:31;;;;;;;5.10;4.70;;;21.80;41.10;;;;;;10563640;27;20219;-80
2022/09/13 22:13:35;;;;;;;4.83;4.53;;;21.80;41.30;;;;;;10565504;28;20234;-81
2022/09/13 22:18:40;;;;;;;4.97;4.40;;;21.70;41.00;;;;;;10560803;28;20772;-81
2022/09/13 22:23:43;;;;;;;4.93;4.53;;;21.60;41.50;;;;;;10563661;28;20691;-81
2022/09/13 22:28:47;;;;;;;6.00;5.50;;;21.50;41.30;;;;;;10567392;27;20228;-80
2022/09/13 22:33:53;;;;;;;5.63;5.20;;;21.50;41.60;;;;;;10565471;28;20246;-80
2022/09/13 22:38:57;;;;;;;5.80;4.67;;;21.40;42.20;;;;;;10565805;28;20714;-81
2022/09/13 22:44:02;;;;;;;5.07;4.67;;;21.40;41.80;;;;;;10565323;28;20235;-81
2022/09/13 22:49:07;;;;;;;6.57;4.73;;;21.40;41.90;;;;;;10567746;28;20256;-81
2022/09/13 22:54:11;;;;;;;5.30;4.90;;;21.30;42.20;;;;;;10568537;28;20682;-81
2022/09/13 22:59:16;;;;;;;4.77;4.37;;;21.20;41.90;;;;;;10572855;27;20840;-80
2022/09/13 23:04:21;;;;;;;4.53;4.13;;;21.20;42.30;;;;;;10567403;27;20230;-81
2022/09/13 23:09:24;;;;;;;5.37;4.63;;;21.20;42.40;;;;;;10563138;28;20231;-81
2022/09/13 23:14:27;;;;;;;5.20;4.80;;;21.20;42.20;;;;;;10563085;28;20314;-80
2022/09/13 23:19:33;;;;;;;4.90;4.50;;;21.30;42.30;;;;;;10562604;28;21278;-81
2022/09/13 23:24:36;;;;;;;5.07;4.67;;;21.30;42.60;;;;;;10561095;28;20219;-81
2022/09/13 23:29:39;;;;;;;5.87;5.30;;;21.30;42.30;;;;;;10562267;28;20223;-81
2022/09/13 23:34:44;;;;;;;6.30;5.10;;;21.30;42.50;;;;;;10560136;28;20273;-81
2022/09/13 23:39:47;;;;;;;5.13;4.73;;;21.20;42.90;;;;;;10563244;28;20219;-81
2022/09/13 23:44:50;;;;;;;5.00;4.60;;;21.30;42.70;;;;;;10556753;28;20230;-81
2022/09/13 23:49:54;;;;;;;6.17;5.10;;;21.30;42.80;;;;;;10571433;28;20234;-80
2022/09/13 23:54:59;;;;;;;5.23;4.73;;;21.30;43.20;;;;;;10559791;28;20231;-80
